sensor_id;sensor_type;location;lat;lon;timestamp;pressure;altitude;pressure_sealevel;temperature;humidity
6034;BME280;3045;43.226;27.858;2022-10-16T00:00:41;149365.28;;;13.23;100.00
6034;BME280;3045;43.226;27.858;2022-10-16T00:03:09;149362.75;;;13.22;100.00
6034;BME280;3045;43.226;27.858;2022-10-16T00:05:41;149353.91;;;13.19;100.00
6034;BME280;3045;43.226;27.858;2022-10-16T00:08:08;149351.34;;;13.18;100.00
6034;BME280;3045;43.226;27.858;2022-10-16T00:10:36;149332.38;;;13.10;100.00
6034;BME280;3045;43.226;27.858;2022-10-16T00:13:05;149331.03;;;13.10;100.00
6034;BME280;3045;43.226;27.858;2022-10-16T00:15:33;149210.72;;;12.62;100.00
6034;BME280;3045;43.226;27.858;2022-10-16T00:18:01;149205.69;;;12.60;100.00
6034;BME280;3045;43.226;27.858;2022-10-16T00:20:28;149244.91;;;12.75;100.00
6034;BME280;3045;43.226;27.858;2022-10-16T00:22:56;149238.59;;;12.73;100.00
6034;BME280;3045;43.226;27.858;2022-10-16T00:25:23;149213.25;;;12.63;100.00
6034;BME280;3045;43.226;27.858;2022-10-16T00:27:50;149215.81;;;12.64;100.00
6034;BME280;3045;43.226;27.858;2022-10-16T00:30:19;149189.19;;;12.53;100.00
6034;BME280;3045;43.226;27.858;2022-10-16T00:32:46;149152.50;;;12.39;100.00
6034;BME280;3045;43.226;27.858;2022-10-16T00:35:13;149120.88;;;12.26;100.00
6034;BME280;3045;43.226;27.858;2022-10-16T00:37:40;149082.88;;;12.11;100.00
6034;BME280;3045;43.226;27.858;2022-10-16T00:40:07;149124.63;;;12.27;100.00
6034;BME280;3045;43.226;27.858;2022-10-16T00:42:34;149109.47;;;12.21;100.00
6034;BME280;3045;43.226;27.858;2022-10-16T00:45:02;149122.09;;;12.26;100.00
6034;BME280;3045;43.226;27.858;2022-10-16T00:47:32;149108.22;;;12.21;100.00
6034;BME280;3045;43.226;27.858;2022-10-16T00:50:06;149095.53;;;12.16;100.00
6034;BME280;3045;43.226;27.858;2022-10-16T00:52:33;149101.84;;;12.18;100.00
6034;BME280;3045;43.226;27.858;2022-10-16T00:55:02;149090.44;;;12.14;100.00
6034;BME280;3045;43.226;27.858;2022-10-16T00:57:29;149079.09;;;12.09;100.00
6034;BME280;3045;43.226;27.858;2022-10-16T00:59:56;149072.75;;;12.07;100.00
6034;BME280;3045;43.226;27.858;2022-10-16T01:02:24;149066.44;;;12.04;100.00
6034;BME280;3045;43.226;27.858;2022-10-16T01:04:53;149028.44;;;11.89;100.00
6034;BME280;3045;43.226;27.858;2022-10-16T01:07:30;149079.09;;;12.09;100.00
6034;BME280;3045;43.226;27.858;2022-10-16T01:10:07;149084.16;;;12.11;100.00
6034;BME280;3045;43.226;27.858;2022-10-16T01:12:41;149075.28;;;12.08;100.00
6034;BME280;3045;43.226;27.858;2022-10-16T01:15:16;149053.78;;;11.99;100.00
6034;BME280;3045;43.226;27.858;2022-10-16T01:17:48;149032.25;;;11.90;100.00
6034;BME280;3045;43.226;27.858;2022-10-16T01:20:24;149038.56;;;11.93;100.00
6034;BME280;3045;43.226;27.858;2022-10-16T01:23:05;149047.41;;;11.97;100.00
6034;BME280;3045;43.226;27.858;2022-10-16T01:25:49;149052.50;;;11.99;100.00
6034;BME280;3045;43.226;27.858;2022-10-16T01:28:25;149000.63;;;11.78;100.00
6034;BME280;3045;43.226;27.858;2022-10-16T01:30:58;149005.66;;;11.80;100.00
6034;BME280;3045;43.226;27.858;2022-10-16T01:33:30;149018.34;;;11.85;100.00
6034;BME280;3045;43.226;27.858;2022-10-16T01:36:07;149017.06;;;11.84;100.00
6034;BME280;3045;43.226;27.858;2022-10-16T01:38:38;149013.28;;;11.83;100.00
6034;BME280;3045;43.226;27.858;2022-10-16T01:41:09;148966.41;;;11.64;100.00
6034;BME280;3045;43.226;27.858;2022-10-16T01:43:40;149005.66;;;11.80;100.00
6034;BME280;3045;43.226;27.858;2022-10-16T01:46:10;148936.06;;;11.52;100.00
6034;BME280;3045;43.226;27.858;2022-10-16T01:48:38;148980.34;;;11.70;100.00
6034;BME280;3045;43.226;27.858;2022-10-16T01:51:07;148977.81;;;11.69;100.00
6034;BME280;3045;43.226;27.858;2022-10-16T01:53:35;148972.78;;;11.67;100.00
6034;BME280;3045;43.226;27.858;2022-10-16T01:56:04;148948.72;;;11.57;100.00
6034;BME280;3045;43.226;27.858;2022-10-16T01:58:36;148939.88;;;11.54;100.00
6034;BME280;3045;43.226;27.858;2022-10-16T02:01:09;148975.25;;;11.68;100.00
6034;BME280;3045;43.226;27.858;2022-10-16T02:03:40;148932.25;;;11.51;100.00
6034;BME280;3045;43.226;27.858;2022-10-16T02:06:09;148942.38;;;11.55;100.00
6034;BME280;3045;43.226;27.858;2022-10-16T02:08:36;148956.28;;;11.60;100.00
6034;BME280;3045;43.226;27.858;2022-10-16T02:11:04;148918.38;;;11.45;100.00
6034;BME280;3045;43.226;27.858;2022-10-16T02:13:34;148891.78;;;11.34;100.00
6034;BME280;3045;43.226;27.858;2022-10-16T02:16:04;148942.38;;;11.55;100.00
6034;BME280;3045;43.226;27.858;2022-10-16T02:18:32;148929.75;;;11.50;100.00
6034;BME280;3045;43.226;27.858;2022-10-16T02:21:02;148895.59;;;11.36;100.00
6034;BME280;3045;43.226;27.858;2022-10-16T02:23:40;148908.25;;;11.41;100.00
6034;BME280;3045;43.226;27.858;2022-10-16T02:26:13;148914.56;;;11.43;100.00
6034;BME280;3045;43.226;27.858;2022-10-16T02:28:44;148906.97;;;11.40;100.00
6034;BME280;3045;43.226;27.858;2022-10-16T02:31:13;148884.22;;;11.31;100.00
6034;BME280;3045;43.226;27.858;2022-10-16T02:33:45;148838.66;;;11.13;100.00
6034;BME280;3045;43.226;27.858;2022-10-16T02:36:13;148879.13;;;11.29;100.00
6034;BME280;3045;43.226;27.858;2022-10-16T02:38:40;148879.13;;;11.29;100.00
6034;BME280;3045;43.226;27.858;2022-10-16T02:41:08;148862.72;;;11.23;100.00
6034;BME280;3045;43.226;27.858;2022-10-16T02:43:35;148866.53;;;11.24;100.00
6034;BME280;3045;43.226;27.858;2022-10-16T02:46:02;148832.38;;;11.11;100.00
6034;BME280;3045;43.226;27.858;2022-10-16T02:48:29;148861.44;;;11.22;100.00
6034;BME280;3045;43.226;27.858;2022-10-16T02:50:57;148876.63;;;11.28;100.00
6034;BME280;3045;43.226;27.858;2022-10-16T02:53:24;148871.56;;;11.26;100.00
6034;BME280;3045;43.226;27.858;2022-10-16T02:55:51;148863.97;;;11.23;100.00
6034;BME280;3045;43.226;27.858;2022-10-16T02:58:18;148855.13;;;11.20;100.00
6034;BME280;3045;43.226;27.858;2022-10-16T03:00:45;148834.91;;;11.12;100.00
6034;BME280;3045;43.226;27.858;2022-10-16T03:03:12;148765.31;;;10.84;100.00
6034;BME280;3045;43.226;27.858;2022-10-16T03:05:39;148834.91;;;11.12;100.00
6034;BME280;3045;43.226;27.858;2022-10-16T03:08:07;148843.75;;;11.15;100.00
6034;BME280;3045;43.226;27.858;2022-10-16T03:10:34;148836.13;;;11.12;100.00
6034;BME280;3045;43.226;27.858;2022-10-16T03:13:01;148832.38;;;11.11;100.00
6034;BME280;3045;43.226;27.858;2022-10-16T03:15:28;148838.66;;;11.13;100.00
6034;BME280;3045;43.226;27.858;2022-10-16T03:17:55;148831.09;;;11.10;100.00
6034;BME280;3045;43.226;27.858;2022-10-16T03:20:24;148767.88;;;10.85;100.00
6034;BME280;3045;43.226;27.858;2022-10-16T03:22:51;148815.91;;;11.04;100.00
6034;BME280;3045;43.226;27.858;2022-10-16T03:25:19;148808.31;;;11.01;100.00
6034;BME280;3045;43.226;27.858;2022-10-16T03:27:46;148814.63;;;11.04;100.00
6034;BME280;3045;43.226;27.858;2022-10-16T03:30:13;148798.22;;;10.97;100.00
6034;BME280;3045;43.226;27.858;2022-10-16T03:32:40;148785.56;;;10.92;100.00
6034;BME280;3045;43.226;27.858;2022-10-16T03:35:07;148808.31;;;11.01;100.00
6034;BME280;3045;43.226;27.858;2022-10-16T03:37:34;148796.94;;;10.96;100.00
6034;BME280;3045;43.226;27.858;2022-10-16T03:40:01;148802.03;;;10.98;100.00
6034;BME280;3045;43.226;27.858;2022-10-16T03:42:30;148808.31;;;11.01;100.00
6034;BME280;3045;43.226;27.858;2022-10-16T03:44:57;148788.09;;;10.93;100.00
6034;BME280;3045;43.226;27.858;2022-10-16T03:47:24;148810.88;;;11.02;100.00
6034;BME280;3045;43.226;27.858;2022-10-16T03:49:51;148824.75;;;11.08;100.00
6034;BME280;3045;43.226;27.858;2022-10-16T03:52:17;148798.22;;;10.97;100.00
6034;BME280;3045;43.226;27.858;2022-10-16T03:54:44;148828.56;;;11.09;100.00
6034;BME280;3045;43.226;27.858;2022-10-16T03:57:11;148826.00;;;11.08;100.00
6034;BME280;3045;43.226;27.858;2022-10-16T03:59:40;148838.66;;;11.13;100.00
6034;BME280;3045;43.226;27.858;2022-10-16T04:02:06;148858.91;;;11.21;100.00
6034;BME280;3045;43.226;27.858;2022-10-16T04:04:33;148853.84;;;11.19;100.00
6034;BME280;3045;43.226;27.858;2022-10-16T04:07:00;148866.53;;;11.24;100.00
6034;BME280;3045;43.226;27.858;2022-10-16T04:09:27;148882.94;;;11.31;100.00
6034;BME280;3045;43.226;27.858;2022-10-16T04:11:54;148865.25;;;11.24;100.00
6034;BME280;3045;43.226;27.858;2022-10-16T04:14:21;148930.97;;;11.50;100.00
6034;BME280;3045;43.226;27.858;2022-10-16T04:16:50;148900.63;;;11.38;100.00
6034;BME280;3045;43.226;27.858;2022-10-16T04:19:17;148939.88;;;11.54;100.00
6034;BME280;3045;43.226;27.858;2022-10-16T04:21:44;148960.09;;;11.62;100.00
6034;BME280;3045;43.226;27.858;2022-10-16T04:24:11;148913.28;;;11.43;100.00
6034;BME280;3045;43.226;27.858;2022-10-16T04:26:37;148972.78;;;11.67;100.00
6034;BME280;3045;43.226;27.858;2022-10-16T04:29:06;148999.38;;;11.77;100.00
6034;BME280;3045;43.226;27.858;2022-10-16T04:31:33;149008.22;;;11.81;100.00
6034;BME280;3045;43.226;27.858;2022-10-16T04:34:01;149008.22;;;11.81;100.00
6034;BME280;3045;43.226;27.858;2022-10-16T04:36:28;148967.69;;;11.65;100.00
6034;BME280;3045;43.226;27.858;2022-10-16T04:38:55;148961.38;;;11.62;100.00
6034;BME280;3045;43.226;27.858;2022-10-16T04:41:22;148927.22;;;11.49;100.00
6034;BME280;3045;43.226;27.858;2022-10-16T04:43:49;148941.16;;;11.54;100.00
6034;BME280;3045;43.226;27.858;2022-10-16T04:46:16;148958.84;;;11.61;100.00
6034;BME280;3045;43.226;27.858;2022-10-16T04:48:42;148942.38;;;11.55;100.00
6034;BME280;3045;43.226;27.858;2022-10-16T04:51:11;148991.78;;;11.74;100.00
6034;BME280;3045;43.226;27.858;2022-10-16T04:53:38;149018.34;;;11.85;100.00
6034;BME280;3045;43.226;27.858;2022-10-16T04:56:05;149075.28;;;12.08;100.00
6034;BME280;3045;43.226;27.858;2022-10-16T04:58:32;149165.13;;;12.44;100.00
6034;BME280;3045;43.226;27.858;2022-10-16T05:00:59;149225.94;;;12.68;100.00
6034;BME280;3045;43.226;27.858;2022-10-16T05:03:26;149236.06;;;12.72;100.00
6034;BME280;3045;43.226;27.858;2022-10-16T05:05:53;149233.53;;;12.71;100.00
6034;BME280;3045;43.226;27.858;2022-10-16T05:08:21;149303.16;;;12.99;100.00
6034;BME280;3045;43.226;27.858;2022-10-16T05:10:48;149343.75;;;13.15;100.00
6034;BME280;3045;43.226;27.858;2022-10-16T05:13:15;149391.88;;;13.34;100.00
6034;BME280;3045;43.226;27.858;2022-10-16T05:15:42;149470.44;;;13.65;100.00
6034;BME280;3045;43.226;27.858;2022-10-16T05:18:09;149459.03;;;13.61;100.00
6034;BME280;3045;43.226;27.858;2022-10-16T05:20:36;149504.63;;;13.79;100.00
6034;BME280;3045;43.226;27.858;2022-10-16T05:23:02;149490.72;;;13.73;100.00
6034;BME280;3045;43.226;27.858;2022-10-16T05:25:31;149446.34;;;13.56;100.00
6034;BME280;3045;43.226;27.858;2022-10-16T05:27:58;149462.81;;;13.62;100.00
6034;BME280;3045;43.226;27.858;2022-10-16T05:30:25;149471.72;;;13.66;100.00
6034;BME280;3045;43.226;27.858;2022-10-16T05:32:51;149481.84;;;13.70;100.00
6034;BME280;3045;43.226;27.858;2022-10-16T05:35:18;149481.84;;;13.70;100.00
6034;BME280;3045;43.226;27.858;2022-10-16T05:37:46;149466.63;;;13.64;100.00
6034;BME280;3045;43.226;27.858;2022-10-16T05:40:15;149499.56;;;13.77;100.00
6034;BME280;3045;43.226;27.858;2022-10-16T05:42:43;149484.34;;;13.71;100.00
6034;BME280;3045;43.226;27.858;2022-10-16T05:45:11;149512.25;;;13.82;100.00
6034;BME280;3045;43.226;27.858;2022-10-16T05:47:38;149528.72;;;13.89;100.00
6034;BME280;3045;43.226;27.858;2022-10-16T05:50:05;149541.41;;;13.94;100.00
6034;BME280;3045;43.226;27.858;2022-10-16T05:52:32;149547.72;;;13.96;100.00
6034;BME280;3045;43.226;27.858;2022-10-16T05:54:59;149556.63;;;14.00;100.00
6034;BME280;3045;43.226;27.858;2022-10-16T05:57:26;149569.25;;;14.05;100.00
6034;BME280;3045;43.226;27.858;2022-10-16T05:59:54;149602.22;;;14.18;100.00
6034;BME280;3045;43.226;27.858;2022-10-16T06:02:21;149647.91;;;14.36;100.00
6034;BME280;3045;43.226;27.858;2022-10-16T06:04:48;149727.81;;;14.68;100.00
6034;BME280;3045;43.226;27.858;2022-10-16T06:07:15;149787.41;;;14.92;100.00
6034;BME280;3045;43.226;27.858;2022-10-16T06:09:42;149833.09;;;15.10;100.00
6034;BME280;3045;43.226;27.858;2022-10-16T06:12:09;149994.25;;;15.74;100.00
6034;BME280;3045;43.226;27.858;2022-10-16T06:14:36;150070.41;;;16.05;100.00
6034;BME280;3045;43.226;27.858;2022-10-16T06:17:04;150276.19;;;16.86;100.00
6034;BME280;3045;43.226;27.858;2022-10-16T06:19:31;150395.59;;;17.34;100.00
6034;BME280;3045;43.226;27.858;2022-10-16T06:21:58;150510.00;;;17.79;100.00
6034;BME280;3045;43.226;27.858;2022-10-16T06:24:25;150479.50;;;17.67;100.00
6034;BME280;3045;43.226;27.858;2022-10-16T06:26:52;150550.69;;;17.96;100.00
6034;BME280;3045;43.226;27.858;2022-10-16T06:29:19;150607.91;;;18.18;97.10
6034;BME280;3045;43.226;27.858;2022-10-16T06:31:46;150665.16;;;18.41;94.35
6034;BME280;3045;43.226;27.858;2022-10-16T06:34:15;150755.47;;;18.77;92.75
6034;BME280;3045;43.226;27.858;2022-10-16T06:36:42;150863.59;;;19.20;89.35
6034;BME280;3045;43.226;27.858;2022-10-16T06:39:09;150919.59;;;19.42;86.10
6034;BME280;3045;43.226;27.858;2022-10-16T06:41:36;150931.09;;;19.47;83.86
6034;BME280;3045;43.226;27.858;2022-10-16T06:44:07;150801.28;;;18.95;86.13
6034;BME280;3045;43.226;27.858;2022-10-16T06:46:34;150601.56;;;18.16;92.22
6034;BME280;3045;43.226;27.858;2022-10-16T06:49:01;150647.31;;;18.34;96.28
6034;BME280;3045;43.226;27.858;2022-10-16T06:51:29;150733.84;;;18.68;94.45
6034;BME280;3045;43.226;27.858;2022-10-16T06:53:59;150878.88;;;19.26;91.87
6034;BME280;3045;43.226;27.858;2022-10-16T06:56:27;150863.59;;;19.20;87.93
6034;BME280;3045;43.226;27.858;2022-10-16T06:58:55;151020.16;;;19.82;87.51
6034;BME280;3045;43.226;27.858;2022-10-16T07:01:24;151161.56;;;20.38;82.55
6034;BME280;3045;43.226;27.858;2022-10-16T07:03:52;151048.19;;;19.93;81.13
6034;BME280;3045;43.226;27.858;2022-10-16T07:06:20;151021.44;;;19.83;82.09
6034;BME280;3045;43.226;27.858;2022-10-16T07:08:49;151199.78;;;20.54;82.24
6034;BME280;3045;43.226;27.858;2022-10-16T07:11:17;151252.00;;;20.74;79.01
6034;BME280;3045;43.226;27.858;2022-10-16T07:13:46;151300.38;;;20.93;77.19
6034;BME280;3045;43.226;27.858;2022-10-16T07:16:15;151300.38;;;20.93;76.70
6034;BME280;3045;43.226;27.858;2022-10-16T07:18:42;151350.09;;;21.13;76.57
6034;BME280;3045;43.226;27.858;2022-10-16T07:21:12;151268.53;;;20.81;78.99
6034;BME280;3045;43.226;27.858;2022-10-16T07:23:40;151347.59;;;21.12;75.85
6034;BME280;3045;43.226;27.858;2022-10-16T07:26:09;151513.22;;;21.78;73.29
6034;BME280;3045;43.226;27.858;2022-10-16T07:28:36;151608.88;;;22.16;69.65
6034;BME280;3045;43.226;27.858;2022-10-16T07:31:06;151707.09;;;22.55;67.88
6034;BME280;3045;43.226;27.858;2022-10-16T07:33:34;151538.75;;;21.88;68.50
6034;BME280;3045;43.226;27.858;2022-10-16T07:36:02;151559.19;;;21.96;69.42
6034;BME280;3045;43.226;27.858;2022-10-16T07:38:28;151599.97;;;22.12;67.22
6034;BME280;3045;43.226;27.858;2022-10-16T07:40:56;151343.69;;;21.11;69.14
6034;BME280;3045;43.226;27.858;2022-10-16T07:43:26;151273.66;;;20.83;74.59
6034;BME280;3045;43.226;27.858;2022-10-16T07:45:53;151503.03;;;21.74;69.56
6034;BME280;3045;43.226;27.858;2022-10-16T07:48:21;151482.66;;;21.66;69.09
6034;BME280;3045;43.226;27.858;2022-10-16T07:50:49;151617.81;;;22.19;67.79
6034;BME280;3045;43.226;27.858;2022-10-16T07:53:16;151640.75;;;22.28;66.41
6034;BME280;3045;43.226;27.858;2022-10-16T07:55:42;151700.72;;;22.52;64.50
6034;BME280;3045;43.226;27.858;2022-10-16T07:58:09;151704.53;;;22.54;65.04
6034;BME280;3045;43.226;27.858;2022-10-16T08:00:38;151365.41;;;21.19;67.92
6034;BME280;3045;43.226;27.858;2022-10-16T08:03:05;151421.50;;;21.41;68.72
6034;BME280;3045;43.226;27.858;2022-10-16T08:05:32;151518.34;;;21.80;69.66
6034;BME280;3045;43.226;27.858;2022-10-16T08:08:00;151689.25;;;22.48;65.44
6034;BME280;3045;43.226;27.858;2022-10-16T08:10:28;151550.28;;;21.93;67.52
6034;BME280;3045;43.226;27.858;2022-10-16T08:12:57;151630.56;;;22.24;66.23
6034;BME280;3045;43.226;27.858;2022-10-16T08:15:24;151551.53;;;21.93;66.54
6034;BME280;3045;43.226;27.858;2022-10-16T08:17:57;151494.13;;;21.70;66.37
6034;BME280;3045;43.226;27.858;2022-10-16T08:20:24;151672.63;;;22.41;65.95
6034;BME280;3045;43.226;27.858;2022-10-16T08:22:51;151898.47;;;23.31;63.79
6034;BME280;3045;43.226;27.858;2022-10-16T08:25:18;151809.19;;;22.95;61.89
6034;BME280;3045;43.226;27.858;2022-10-16T08:27:45;151967.47;;;23.58;59.21
6034;BME280;3045;43.226;27.858;2022-10-16T08:30:13;152266.25;;;24.76;56.13
6034;BME280;3045;43.226;27.858;2022-10-16T08:32:43;152349.31;;;25.09;52.91
6034;BME280;3045;43.226;27.858;2022-10-16T08:35:12;152491.22;;;25.65;52.01
6034;BME280;3045;43.226;27.858;2022-10-16T08:37:40;152693.22;;;26.45;49.04
6034;BME280;3045;43.226;27.858;2022-10-16T08:40:16;152796.88;;;26.86;47.27
6034;BME280;3045;43.226;27.858;2022-10-16T08:42:54;152727.75;;;26.59;48.42
6034;BME280;3045;43.226;27.858;2022-10-16T08:48:17;152716.25;;;26.54;46.17
6034;BME280;3045;43.226;27.858;2022-10-16T08:50:47;152819.84;;;26.95;45.90
6034;BME280;3045;43.226;27.858;2022-10-16T08:53:19;152886.38;;;27.21;44.99
6034;BME280;3045;43.226;27.858;2022-10-16T08:55:50;152942.69;;;27.44;44.92
6034;BME280;3045;43.226;27.858;2022-10-16T08:58:20;152933.75;;;27.40;44.68
6034;BME280;3045;43.226;27.858;2022-10-16T09:00:49;152992.63;;;27.63;43.02
6034;BME280;3045;43.226;27.858;2022-10-16T09:03:33;152766.09;;;26.74;43.12
6034;BME280;3045;43.226;27.858;2022-10-16T09:06:17;151947.03;;;23.50;50.29
6034;BME280;3045;43.226;27.858;2022-10-16T09:08:58;152411.91;;;25.34;49.72
6034;BME280;3045;43.226;27.858;2022-10-16T09:11:39;152581.97;;;26.01;46.44
6034;BME280;3045;43.226;27.858;2022-10-16T09:14:22;152708.59;;;26.51;45.53
6034;BME280;3045;43.226;27.858;2022-10-16T09:17:12;152580.69;;;26.01;44.28
6034;BME280;3045;43.226;27.858;2022-10-16T09:19:47;152217.69;;;24.57;47.15
6034;BME280;3045;43.226;27.858;2022-10-16T09:22:18;152179.41;;;24.42;48.32
6034;BME280;3045;43.226;27.858;2022-10-16T09:24:48;152240.69;;;24.66;47.55
6034;BME280;3045;43.226;27.858;2022-10-16T09:27:15;152022.34;;;23.80;49.77
6034;BME280;3045;43.226;27.858;2022-10-16T09:29:42;152063.19;;;23.96;49.92
6034;BME280;3045;43.226;27.858;2022-10-16T09:32:12;152261.13;;;24.74;48.75
6034;BME280;3045;43.226;27.858;2022-10-16T09:34:43;152472.03;;;25.58;47.91
6034;BME280;3045;43.226;27.858;2022-10-16T09:37:14;152652.31;;;26.29;44.68
6034;BME280;3045;43.226;27.858;2022-10-16T09:39:49;152466.91;;;25.56;44.89
6034;BME280;3045;43.226;27.858;2022-10-16T09:42:17;152532.09;;;25.81;45.79
6034;BME280;3045;43.226;27.858;2022-10-16T09:44:48;152691.94;;;26.45;44.16
6034;BME280;3045;43.226;27.858;2022-10-16T09:47:18;152787.84;;;26.82;43.20
6034;BME280;3045;43.226;27.858;2022-10-16T09:49:54;152833.94;;;27.01;42.27
6034;BME280;3045;43.226;27.858;2022-10-16T09:52:23;152801.97;;;26.88;42.93
6034;BME280;3045;43.226;27.858;2022-10-16T09:54:53;152624.16;;;26.18;43.43
6034;BME280;3045;43.226;27.858;2022-10-16T09:57:21;152789.13;;;26.83;43.78
6034;BME280;3045;43.226;27.858;2022-10-16T09:59:50;152309.72;;;24.93;45.00
6034;BME280;3045;43.226;27.858;2022-10-16T10:02:18;152332.72;;;25.02;45.62
6034;BME280;3045;43.226;27.858;2022-10-16T10:04:49;152544.88;;;25.86;45.49
6034;BME280;3045;43.226;27.858;2022-10-16T10:07:24;152056.75;;;23.93;46.54
6034;BME280;3045;43.226;27.858;2022-10-16T10:09:53;151786.22;;;22.86;48.35
6034;BME280;3045;43.226;27.858;2022-10-16T10:12:23;151568.09;;;22.00;51.00
6034;BME280;3045;43.226;27.858;2022-10-16T10:14:51;151804.06;;;22.93;51.15
6034;BME280;3045;43.226;27.858;2022-10-16T10:17:20;151887.00;;;23.26;48.84
6034;BME280;3045;43.226;27.858;2022-10-16T10:19:50;151691.81;;;22.49;50.99
6034;BME280;3045;43.226;27.858;2022-10-16T10:22:21;152124.50;;;24.20;50.04
6034;BME280;3045;43.226;27.858;2022-10-16T10:24:59;152488.63;;;25.64;46.59
6034;BME280;3045;43.226;27.858;2022-10-16T10:27:34;152867.22;;;27.14;44.34
6034;BME280;3045;43.226;27.858;2022-10-16T10:30:10;152749.50;;;26.67;41.46
6034;BME280;3045;43.226;27.858;2022-10-16T10:32:47;152334.00;;;25.03;42.85
6034;BME280;3045;43.226;27.858;2022-10-16T10:35:21;151797.72;;;22.91;48.95
6034;BME280;3045;43.226;27.858;2022-10-16T10:37:56;151995.50;;;23.69;47.88
6034;BME280;3045;43.226;27.858;2022-10-16T10:40:40;151873.00;;;23.20;48.24
6034;BME280;3045;43.226;27.858;2022-10-16T10:43:18;152190.91;;;24.46;45.99
6034;BME280;3045;43.226;27.858;2022-10-16T10:45:52;152250.91;;;24.70;46.88
6034;BME280;3045;43.226;27.858;2022-10-16T10:51:19;152564.03;;;25.94;43.45
6034;BME280;3045;43.226;27.858;2022-10-16T10:53:53;152498.84;;;25.68;44.03
6034;BME280;3045;43.226;27.858;2022-10-16T10:56:42;152492.50;;;25.66;43.04
6034;BME280;3045;43.226;27.858;2022-10-16T10:59:31;151870.41;;;23.19;45.62
6034;BME280;3045;43.226;27.858;2022-10-16T11:02:00;151648.44;;;22.31;48.94
6034;BME280;3045;43.226;27.858;2022-10-16T11:04:58;151615.28;;;22.18;51.34
6034;BME280;3045;43.226;27.858;2022-10-16T11:07:33;151319.47;;;21.01;54.33
6034;BME280;3045;43.226;27.858;2022-10-16T11:10:04;151215.03;;;20.60;54.88
6034;BME280;3045;43.226;27.858;2022-10-16T11:12:40;151064.72;;;20.00;57.69
6034;BME280;3045;43.226;27.858;2022-10-16T11:15:14;150937.44;;;19.49;59.31
6034;BME280;3045;43.226;27.858;2022-10-16T11:17:47;150756.75;;;18.78;64.52
6034;BME280;3045;43.226;27.858;2022-10-16T11:20:20;150680.38;;;18.47;67.44
6034;BME280;3045;43.226;27.858;2022-10-16T11:22:53;150680.38;;;18.47;70.97
6034;BME280;3045;43.226;27.858;2022-10-16T11:25:23;150681.66;;;18.48;72.76
6034;BME280;3045;43.226;27.858;2022-10-16T11:27:56;150765.63;;;18.81;72.33
6034;BME280;3045;43.226;27.858;2022-10-16T11:30:26;150764.34;;;18.81;71.45
6034;BME280;3045;43.226;27.858;2022-10-16T11:33:06;150855.97;;;19.17;69.54
6034;BME280;3045;43.226;27.858;2022-10-16T11:35:44;150824.19;;;19.04;68.45
6034;BME280;3045;43.226;27.858;2022-10-16T11:38:18;150868.72;;;19.22;68.94
6034;BME280;3045;43.226;27.858;2022-10-16T11:40:52;150867.44;;;19.22;68.44
6034;BME280;3045;43.226;27.858;2022-10-16T11:43:27;150747.84;;;18.74;69.46
6034;BME280;3045;43.226;27.858;2022-10-16T11:45:57;150620.63;;;18.23;72.74
6034;BME280;3045;43.226;27.858;2022-10-16T11:48:30;150675.31;;;18.45;73.02
6034;BME280;3045;43.226;27.858;2022-10-16T11:51:08;150699.50;;;18.55;71.20
6034;BME280;3045;43.226;27.858;2022-10-16T11:53:45;150779.63;;;18.87;69.89
6034;BME280;3045;43.226;27.858;2022-10-16T11:56:13;150825.44;;;19.05;66.53
6034;BME280;3045;43.226;27.858;2022-10-16T11:58:53;150815.28;;;19.01;67.00
6034;BME280;3045;43.226;27.858;2022-10-16T12:01:28;150808.88;;;18.98;67.86
6034;BME280;3045;43.226;27.858;2022-10-16T12:04:05;150794.88;;;18.93;67.54
6034;BME280;3045;43.226;27.858;2022-10-16T12:06:36;150791.09;;;18.91;69.61
6034;BME280;3045;43.226;27.858;2022-10-16T12:09:13;150724.94;;;18.65;72.77
6034;BME280;3045;43.226;27.858;2022-10-16T12:11:41;150740.22;;;18.71;72.89
6034;BME280;3045;43.226;27.858;2022-10-16T12:14:22;150736.41;;;18.69;71.34
6034;BME280;3045;43.226;27.858;2022-10-16T12:17:00;150755.47;;;18.77;71.21
6034;BME280;3045;43.226;27.858;2022-10-16T12:19:29;150703.31;;;18.56;68.62
6034;BME280;3045;43.226;27.858;2022-10-16T12:21:59;150787.25;;;18.90;72.52
6034;BME280;3045;43.226;27.858;2022-10-16T12:24:33;150772.03;;;18.84;69.59
6034;BME280;3045;43.226;27.858;2022-10-16T12:27:01;150789.81;;;18.91;70.60
6034;BME280;3045;43.226;27.858;2022-10-16T12:29:34;150732.56;;;18.68;72.11
6034;BME280;3045;43.226;27.858;2022-10-16T12:32:03;150615.53;;;18.21;74.09
6034;BME280;3045;43.226;27.858;2022-10-16T12:34:37;150662.59;;;18.40;74.86
6034;BME280;3045;43.226;27.858;2022-10-16T12:37:18;150607.91;;;18.18;72.02
6034;BME280;3045;43.226;27.858;2022-10-16T12:39:47;150637.13;;;18.30;70.13
6034;BME280;3045;43.226;27.858;2022-10-16T12:42:30;150684.22;;;18.49;69.79
6034;BME280;3045;43.226;27.858;2022-10-16T12:45:00;150682.94;;;18.48;70.13
6034;BME280;3045;43.226;27.858;2022-10-16T12:47:47;150696.97;;;18.54;71.43
6034;BME280;3045;43.226;27.858;2022-10-16T12:50:30;150670.22;;;18.43;72.27
6034;BME280;3045;43.226;27.858;2022-10-16T12:52:58;150716.06;;;18.61;71.35
6034;BME280;3045;43.226;27.858;2022-10-16T12:55:26;150724.94;;;18.65;72.66
6034;BME280;3045;43.226;27.858;2022-10-16T12:58:07;150744.00;;;18.73;69.67
6034;BME280;3045;43.226;27.858;2022-10-16T13:00:42;150708.44;;;18.58;68.90
6034;BME280;3045;43.226;27.858;2022-10-16T13:03:35;150696.97;;;18.54;71.20
6034;BME280;3045;43.226;27.858;2022-10-16T13:06:17;150585.00;;;18.09;74.18
6034;BME280;3045;43.226;27.858;2022-10-16T13:09:04;150571.00;;;18.04;74.48
6034;BME280;3045;43.226;27.858;2022-10-16T13:11:43;150633.34;;;18.29;74.20
6034;BME280;3045;43.226;27.858;2022-10-16T13:14:39;150522.72;;;17.85;74.62
6034;BME280;3045;43.226;27.858;2022-10-16T13:17:18;150602.81;;;18.16;72.84